Portada
METAR-TAF:

METAR-TAF

Aeroports :

Rio de Janeiro, Rio de Janeiro, Brasil

latitud: 22-59S, longitud: 043-22W, altitud: 3 m

Observació

L'informe es va fer fa 49 minuts, a les 22:00 UTC
Vent 1 kt del Est
Temperatura 19°C
Humitat 73%
Pressió 1022 hPa
Visibilitat 10 km o més
sense núvols per sota de 1500 mi sense presència de cumulonimbus.

METAR: SBJR 202200Z 09001KT CAVOK 19/14 Q1022

Hora: 19:49 (22:49 UTC)


TAF: manca

Observacions i pronòstics meteorològics de més de 4000 aeroports (METAR i TAF).

Les estacions disponibles són els punts grocs i vermells al mapa.

Posi el ratolí al punt desitjat per veure el nom de l'estació.

Feu clic per veure les observacions i els pronòstics meteorològics.

Per canviar el mapa: feu clic els botons verds amb una creu de color negre per apropar; al botó verd amb un guió per allunyar la imatge; o en les fletxes verdes per a mapes adjacents.


METAR-TAF: